sensor_id;sensor_type;location;lat;lon;timestamp;P1;durP1;ratioP1;P2;durP2;ratioP2
67597;SDS011;62026;39.230;9.122;2023-01-05T00:01:37;30.40;;;15.40;;
67597;SDS011;62026;39.230;9.122;2023-01-05T00:04:03;24.02;;;14.80;;
67597;SDS011;62026;39.230;9.122;2023-01-05T00:06:30;27.05;;;15.13;;
67597;SDS011;62026;39.230;9.122;2023-01-05T00:08:58;31.35;;;15.05;;
67597;SDS011;62026;39.230;9.122;2023-01-05T00:11:25;24.77;;;15.07;;
67597;SDS011;62026;39.230;9.122;2023-01-05T00:14:12;24.27;;;14.25;;
67597;SDS011;62026;39.230;9.122;2023-01-05T00:16:58;25.00;;;14.57;;
67597;SDS011;62026;39.230;9.122;2023-01-05T00:19:43;23.38;;;14.05;;
67597;SDS011;62026;39.230;9.122;2023-01-05T00:22:39;30.75;;;14.95;;
67597;SDS011;62026;39.230;9.122;2023-01-05T00:25:19;30.13;;;14.90;;
67597;SDS011;62026;39.230;9.122;2023-01-05T00:27:49;26.00;;;14.85;;
67597;SDS011;62026;39.230;9.122;2023-01-05T00:30:22;28.15;;;14.80;;
67597;SDS011;62026;39.230;9.122;2023-01-05T00:33:02;29.40;;;15.77;;
67597;SDS011;62026;39.230;9.122;2023-01-05T00:35:29;29.10;;;15.68;;
67597;SDS011;62026;39.230;9.122;2023-01-05T00:37:55;26.80;;;15.90;;
67597;SDS011;62026;39.230;9.122;2023-01-05T00:40:21;30.85;;;15.80;;
67597;SDS011;62026;39.230;9.122;2023-01-05T00:42:47;25.30;;;15.98;;
67597;SDS011;62026;39.230;9.122;2023-01-05T00:45:14;26.98;;;15.70;;
67597;SDS011;62026;39.230;9.122;2023-01-05T00:47:42;28.25;;;16.20;;
67597;SDS011;62026;39.230;9.122;2023-01-05T00:50:09;27.05;;;15.88;;
67597;SDS011;62026;39.230;9.122;2023-01-05T00:52:39;26.55;;;15.05;;
67597;SDS011;62026;39.230;9.122;2023-01-05T00:55:06;25.75;;;15.07;;
67597;SDS011;62026;39.230;9.122;2023-01-05T00:57:34;29.83;;;16.02;;
67597;SDS011;62026;39.230;9.122;2023-01-05T01:00:02;26.77;;;15.40;;
67597;SDS011;62026;39.230;9.122;2023-01-05T01:02:31;28.63;;;16.13;;
67597;SDS011;62026;39.230;9.122;2023-01-05T01:04:57;27.55;;;15.48;;
67597;SDS011;62026;39.230;9.122;2023-01-05T01:07:23;33.65;;;15.27;;
67597;SDS011;62026;39.230;9.122;2023-01-05T01:09:49;22.75;;;14.77;;
67597;SDS011;62026;39.230;9.122;2023-01-05T01:12:15;22.75;;;13.90;;
67597;SDS011;62026;39.230;9.122;2023-01-05T01:14:41;27.98;;;14.15;;
67597;SDS011;62026;39.230;9.122;2023-01-05T01:17:14;28.52;;;13.70;;
67597;SDS011;62026;39.230;9.122;2023-01-05T01:19:41;26.38;;;14.45;;
67597;SDS011;62026;39.230;9.122;2023-01-05T01:22:07;24.98;;;13.75;;
67597;SDS011;62026;39.230;9.122;2023-01-05T01:24:33;22.52;;;13.13;;
67597;SDS011;62026;39.230;9.122;2023-01-05T01:26:59;26.02;;;13.40;;
67597;SDS011;62026;39.230;9.122;2023-01-05T01:29:25;28.50;;;12.77;;
67597;SDS011;62026;39.230;9.122;2023-01-05T01:31:52;20.20;;;12.38;;
67597;SDS011;62026;39.230;9.122;2023-01-05T01:34:18;23.77;;;14.02;;
67597;SDS011;62026;39.230;9.122;2023-01-05T01:36:45;28.10;;;14.98;;
67597;SDS011;62026;39.230;9.122;2023-01-05T01:39:13;25.80;;;14.15;;
67597;SDS011;62026;39.230;9.122;2023-01-05T01:41:43;24.25;;;14.75;;
67597;SDS011;62026;39.230;9.122;2023-01-05T01:47:38;25.77;;;13.65;;
67597;SDS011;62026;39.230;9.122;2023-01-05T01:52:47;19.88;;;12.07;;
67597;SDS011;62026;39.230;9.122;2023-01-05T01:55:18;19.83;;;11.63;;
67597;SDS011;62026;39.230;9.122;2023-01-05T01:57:46;17.30;;;9.57;;
67597;SDS011;62026;39.230;9.122;2023-01-05T02:00:15;19.75;;;9.15;;
67597;SDS011;62026;39.230;9.122;2023-01-05T02:02:46;16.75;;;8.98;;
67597;SDS011;62026;39.230;9.122;2023-01-05T02:05:21;15.27;;;9.18;;
67597;SDS011;62026;39.230;9.122;2023-01-05T02:07:56;22.13;;;9.65;;
67597;SDS011;62026;39.230;9.122;2023-01-05T02:34:37;21.42;;;10.60;;
67597;SDS011;62026;39.230;9.122;2023-01-05T02:40:04;17.48;;;10.07;;
67597;SDS011;62026;39.230;9.122;2023-01-05T02:42:39;18.85;;;9.68;;
67597;SDS011;62026;39.230;9.122;2023-01-05T02:45:11;20.52;;;9.65;;
67597;SDS011;62026;39.230;9.122;2023-01-05T02:47:44;17.20;;;9.38;;
67597;SDS011;62026;39.230;9.122;2023-01-05T02:52:56;15.40;;;8.75;;
67597;SDS011;62026;39.230;9.122;2023-01-05T02:55:44;15.32;;;8.75;;
67597;SDS011;62026;39.230;9.122;2023-01-05T02:58:21;20.65;;;8.82;;
67597;SDS011;62026;39.230;9.122;2023-01-05T03:01:00;17.38;;;7.70;;
67597;SDS011;62026;39.230;9.122;2023-01-05T03:03:43;15.65;;;7.70;;
67597;SDS011;62026;39.230;9.122;2023-01-05T03:06:32;13.90;;;7.28;;
67597;SDS011;62026;39.230;9.122;2023-01-05T03:09:16;12.57;;;7.50;;
67597;SDS011;62026;39.230;9.122;2023-01-05T03:12:00;12.75;;;6.82;;
67597;SDS011;62026;39.230;9.122;2023-01-05T03:17:57;13.60;;;7.15;;
67597;SDS011;62026;39.230;9.122;2023-01-05T03:20:30;19.65;;;7.57;;
67597;SDS011;62026;39.230;9.122;2023-01-05T03:22:59;15.50;;;7.30;;
67597;SDS011;62026;39.230;9.122;2023-01-05T03:25:50;11.82;;;7.30;;
67597;SDS011;62026;39.230;9.122;2023-01-05T03:28:45;16.98;;;7.70;;
67597;SDS011;62026;39.230;9.122;2023-01-05T03:37:48;13.30;;;7.35;;
67597;SDS011;62026;39.230;9.122;2023-01-05T03:40:20;15.18;;;7.80;;
67597;SDS011;62026;39.230;9.122;2023-01-05T03:42:53;14.85;;;7.20;;
67597;SDS011;62026;39.230;9.122;2023-01-05T03:45:21;15.25;;;7.10;;
67597;SDS011;62026;39.230;9.122;2023-01-05T03:47:53;12.23;;;7.28;;
67597;SDS011;62026;39.230;9.122;2023-01-05T03:50:23;17.50;;;7.72;;
67597;SDS011;62026;39.230;9.122;2023-01-05T03:52:50;14.95;;;7.40;;
67597;SDS011;62026;39.230;9.122;2023-01-05T03:55:16;13.80;;;7.38;;
67597;SDS011;62026;39.230;9.122;2023-01-05T03:57:42;15.32;;;8.07;;
67597;SDS011;62026;39.230;9.122;2023-01-05T04:00:09;13.98;;;7.38;;
67597;SDS011;62026;39.230;9.122;2023-01-05T04:02:44;14.73;;;7.13;;
67597;SDS011;62026;39.230;9.122;2023-01-05T04:05:16;18.33;;;7.47;;
67597;SDS011;62026;39.230;9.122;2023-01-05T04:07:43;21.63;;;8.30;;
67597;SDS011;62026;39.230;9.122;2023-01-05T04:10:10;11.82;;;7.90;;
67597;SDS011;62026;39.230;9.122;2023-01-05T04:12:36;13.90;;;7.82;;
67597;SDS011;62026;39.230;9.122;2023-01-05T04:15:03;18.17;;;9.05;;
67597;SDS011;62026;39.230;9.122;2023-01-05T04:17:31;17.55;;;8.35;;
67597;SDS011;62026;39.230;9.122;2023-01-05T04:19:57;14.88;;;8.88;;
67597;SDS011;62026;39.230;9.122;2023-01-05T04:22:24;19.60;;;9.32;;
67597;SDS011;62026;39.230;9.122;2023-01-05T04:24:52;15.60;;;9.18;;
67597;SDS011;62026;39.230;9.122;2023-01-05T04:27:18;18.17;;;9.80;;
67597;SDS011;62026;39.230;9.122;2023-01-05T04:29:45;17.88;;;9.52;;
67597;SDS011;62026;39.230;9.122;2023-01-05T04:32:11;17.58;;;9.88;;
67597;SDS011;62026;39.230;9.122;2023-01-05T04:34:37;16.50;;;10.23;;
67597;SDS011;62026;39.230;9.122;2023-01-05T04:37:04;18.60;;;10.40;;
67597;SDS011;62026;39.230;9.122;2023-01-05T04:39:32;19.98;;;10.10;;
67597;SDS011;62026;39.230;9.122;2023-01-05T04:41:59;16.42;;;9.55;;
67597;SDS011;62026;39.230;9.122;2023-01-05T04:44:26;17.77;;;10.52;;
67597;SDS011;62026;39.230;9.122;2023-01-05T04:46:53;19.73;;;10.63;;
67597;SDS011;62026;39.230;9.122;2023-01-05T04:49:20;16.98;;;10.85;;
67597;SDS011;62026;39.230;9.122;2023-01-05T04:51:48;18.10;;;11.02;;
67597;SDS011;62026;39.230;9.122;2023-01-05T04:54:15;19.60;;;11.23;;
67597;SDS011;62026;39.230;9.122;2023-01-05T04:56:41;20.90;;;10.88;;
67597;SDS011;62026;39.230;9.122;2023-01-05T04:59:08;18.33;;;10.35;;
67597;SDS011;62026;39.230;9.122;2023-01-05T05:01:35;15.07;;;10.23;;
67597;SDS011;62026;39.230;9.122;2023-01-05T05:04:02;16.92;;;10.27;;
67597;SDS011;62026;39.230;9.122;2023-01-05T05:06:29;18.17;;;10.70;;
67597;SDS011;62026;39.230;9.122;2023-01-05T05:08:55;17.60;;;10.50;;
67597;SDS011;62026;39.230;9.122;2023-01-05T05:11:22;17.25;;;10.27;;
67597;SDS011;62026;39.230;9.122;2023-01-05T05:13:49;18.55;;;11.48;;
67597;SDS011;62026;39.230;9.122;2023-01-05T05:16:15;16.98;;;11.30;;
67597;SDS011;62026;39.230;9.122;2023-01-05T05:18:44;23.50;;;12.40;;
67597;SDS011;62026;39.230;9.122;2023-01-05T05:21:15;23.40;;;12.00;;
67597;SDS011;62026;39.230;9.122;2023-01-05T05:23:41;26.83;;;12.65;;
67597;SDS011;62026;39.230;9.122;2023-01-05T05:26:07;21.60;;;11.13;;
67597;SDS011;62026;39.230;9.122;2023-01-05T05:28:37;19.05;;;11.07;;
67597;SDS011;62026;39.230;9.122;2023-01-05T05:31:03;20.02;;;11.07;;
67597;SDS011;62026;39.230;9.122;2023-01-05T05:33:29;17.73;;;10.25;;
67597;SDS011;62026;39.230;9.122;2023-01-05T05:35:55;18.08;;;10.55;;
67597;SDS011;62026;39.230;9.122;2023-01-05T05:38:21;18.45;;;10.50;;
67597;SDS011;62026;39.230;9.122;2023-01-05T05:40:47;18.67;;;9.70;;
67597;SDS011;62026;39.230;9.122;2023-01-05T05:43:13;18.80;;;10.05;;
67597;SDS011;62026;39.230;9.122;2023-01-05T05:45:40;18.85;;;11.23;;
67597;SDS011;62026;39.230;9.122;2023-01-05T05:48:06;19.42;;;11.60;;
67597;SDS011;62026;39.230;9.122;2023-01-05T05:50:32;19.65;;;10.60;;
67597;SDS011;62026;39.230;9.122;2023-01-05T05:53:04;19.75;;;11.40;;
67597;SDS011;62026;39.230;9.122;2023-01-05T05:55:30;19.58;;;10.90;;
67597;SDS011;62026;39.230;9.122;2023-01-05T05:57:57;17.20;;;10.82;;
67597;SDS011;62026;39.230;9.122;2023-01-05T06:00:23;16.63;;;10.68;;
67597;SDS011;62026;39.230;9.122;2023-01-05T06:02:49;19.52;;;10.45;;
67597;SDS011;62026;39.230;9.122;2023-01-05T06:05:15;16.83;;;10.70;;
67597;SDS011;62026;39.230;9.122;2023-01-05T06:07:41;17.35;;;10.20;;
67597;SDS011;62026;39.230;9.122;2023-01-05T06:10:07;17.50;;;10.77;;
67597;SDS011;62026;39.230;9.122;2023-01-05T06:12:34;16.40;;;10.38;;
67597;SDS011;62026;39.230;9.122;2023-01-05T06:15:00;14.35;;;9.55;;
67597;SDS011;62026;39.230;9.122;2023-01-05T06:17:26;17.92;;;9.90;;
67597;SDS011;62026;39.230;9.122;2023-01-05T06:19:52;16.77;;;10.43;;
67597;SDS011;62026;39.230;9.122;2023-01-05T06:22:18;15.68;;;9.77;;
67597;SDS011;62026;39.230;9.122;2023-01-05T06:24:44;14.75;;;9.90;;
67597;SDS011;62026;39.230;9.122;2023-01-05T06:27:10;15.40;;;9.77;;
67597;SDS011;62026;39.230;9.122;2023-01-05T06:29:36;14.23;;;9.23;;
67597;SDS011;62026;39.230;9.122;2023-01-05T06:32:02;17.35;;;10.00;;
67597;SDS011;62026;39.230;9.122;2023-01-05T06:34:28;16.08;;;9.50;;
67597;SDS011;62026;39.230;9.122;2023-01-05T06:36:54;15.45;;;8.98;;
67597;SDS011;62026;39.230;9.122;2023-01-05T06:39:21;17.08;;;8.98;;
67597;SDS011;62026;39.230;9.122;2023-01-05T06:41:47;11.40;;;8.45;;
67597;SDS011;62026;39.230;9.122;2023-01-05T06:44:13;14.50;;;9.02;;
67597;SDS011;62026;39.230;9.122;2023-01-05T06:46:39;10.95;;;7.95;;
67597;SDS011;62026;39.230;9.122;2023-01-05T06:49:05;13.32;;;8.35;;
67597;SDS011;62026;39.230;9.122;2023-01-05T06:51:31;13.07;;;8.15;;
67597;SDS011;62026;39.230;9.122;2023-01-05T06:53:57;13.93;;;8.15;;
67597;SDS011;62026;39.230;9.122;2023-01-05T06:56:23;10.65;;;7.50;;
67597;SDS011;62026;39.230;9.122;2023-01-05T06:58:49;13.32;;;7.78;;
67597;SDS011;62026;39.230;9.122;2023-01-05T07:01:15;12.68;;;8.05;;
67597;SDS011;62026;39.230;9.122;2023-01-05T07:03:41;14.40;;;8.90;;
67597;SDS011;62026;39.230;9.122;2023-01-05T07:06:07;14.30;;;8.52;;
67597;SDS011;62026;39.230;9.122;2023-01-05T07:08:33;11.25;;;7.78;;
67597;SDS011;62026;39.230;9.122;2023-01-05T07:10:59;11.35;;;8.30;;
67597;SDS011;62026;39.230;9.122;2023-01-05T07:13:25;11.93;;;8.10;;
67597;SDS011;62026;39.230;9.122;2023-01-05T07:15:51;10.68;;;8.02;;
67597;SDS011;62026;39.230;9.122;2023-01-05T07:18:17;13.25;;;8.35;;
67597;SDS011;62026;39.230;9.122;2023-01-05T07:20:42;15.02;;;8.40;;
67597;SDS011;62026;39.230;9.122;2023-01-05T07:23:08;11.68;;;7.65;;
67597;SDS011;62026;39.230;9.122;2023-01-05T07:25:34;11.45;;;7.55;;
67597;SDS011;62026;39.230;9.122;2023-01-05T07:28:01;18.70;;;7.70;;
67597;SDS011;62026;39.230;9.122;2023-01-05T07:30:27;13.52;;;7.57;;
67597;SDS011;62026;39.230;9.122;2023-01-05T07:32:56;13.70;;;7.63;;
67597;SDS011;62026;39.230;9.122;2023-01-05T07:35:23;10.98;;;7.72;;
67597;SDS011;62026;39.230;9.122;2023-01-05T07:37:49;13.10;;;7.85;;
67597;SDS011;62026;39.230;9.122;2023-01-05T07:40:15;11.85;;;7.55;;
67597;SDS011;62026;39.230;9.122;2023-01-05T07:42:41;12.27;;;7.35;;
67597;SDS011;62026;39.230;9.122;2023-01-05T07:45:08;9.70;;;6.95;;
67597;SDS011;62026;39.230;9.122;2023-01-05T07:47:37;10.73;;;7.28;;
67597;SDS011;62026;39.230;9.122;2023-01-05T07:50:03;11.60;;;7.13;;
67597;SDS011;62026;39.230;9.122;2023-01-05T07:52:30;11.27;;;6.93;;
67597;SDS011;62026;39.230;9.122;2023-01-05T07:54:57;11.80;;;6.88;;
67597;SDS011;62026;39.230;9.122;2023-01-05T07:57:23;11.38;;;6.75;;
67597;SDS011;62026;39.230;9.122;2023-01-05T07:59:49;10.35;;;6.82;;
67597;SDS011;62026;39.230;9.122;2023-01-05T08:02:15;11.20;;;6.95;;
67597;SDS011;62026;39.230;9.122;2023-01-05T08:04:41;12.80;;;7.22;;
67597;SDS011;62026;39.230;9.122;2023-01-05T08:07:07;13.77;;;7.32;;
67597;SDS011;62026;39.230;9.122;2023-01-05T08:09:36;17.10;;;7.70;;
67597;SDS011;62026;39.230;9.122;2023-01-05T08:12:36;14.93;;;7.47;;
67597;SDS011;62026;39.230;9.122;2023-01-05T08:15:22;13.13;;;7.60;;
67597;SDS011;62026;39.230;9.122;2023-01-05T08:17:48;11.02;;;6.90;;
67597;SDS011;62026;39.230;9.122;2023-01-05T08:20:14;11.88;;;7.65;;
67597;SDS011;62026;39.230;9.122;2023-01-05T08:22:40;11.32;;;7.95;;
67597;SDS011;62026;39.230;9.122;2023-01-05T08:25:06;10.93;;;7.22;;
67597;SDS011;62026;39.230;9.122;2023-01-05T08:27:33;15.75;;;8.07;;
67597;SDS011;62026;39.230;9.122;2023-01-05T08:29:59;15.85;;;7.22;;
67597;SDS011;62026;39.230;9.122;2023-01-05T08:32:25;14.45;;;7.68;;
67597;SDS011;62026;39.230;9.122;2023-01-05T08:34:51;16.85;;;7.22;;
67597;SDS011;62026;39.230;9.122;2023-01-05T08:37:17;10.63;;;6.22;;
67597;SDS011;62026;39.230;9.122;2023-01-05T08:39:43;12.13;;;6.80;;
67597;SDS011;62026;39.230;9.122;2023-01-05T08:42:09;11.70;;;6.97;;
67597;SDS011;62026;39.230;9.122;2023-01-05T08:44:35;10.90;;;7.13;;
67597;SDS011;62026;39.230;9.122;2023-01-05T08:47:01;11.35;;;6.70;;
67597;SDS011;62026;39.230;9.122;2023-01-05T08:49:27;10.32;;;6.63;;
67597;SDS011;62026;39.230;9.122;2023-01-05T08:51:53;10.73;;;7.20;;
67597;SDS011;62026;39.230;9.122;2023-01-05T08:54:19;11.63;;;6.93;;
67597;SDS011;62026;39.230;9.122;2023-01-05T08:56:45;11.95;;;7.07;;
67597;SDS011;62026;39.230;9.122;2023-01-05T08:59:14;13.05;;;7.50;;
67597;SDS011;62026;39.230;9.122;2023-01-05T09:01:43;12.27;;;5.55;;
67597;SDS011;62026;39.230;9.122;2023-01-05T09:04:09;13.32;;;7.13;;
67597;SDS011;62026;39.230;9.122;2023-01-05T09:06:35;12.27;;;7.78;;
67597;SDS011;62026;39.230;9.122;2023-01-05T09:09:02;13.23;;;7.25;;
67597;SDS011;62026;39.230;9.122;2023-01-05T09:11:29;17.13;;;7.97;;
67597;SDS011;62026;39.230;9.122;2023-01-05T09:13:56;12.65;;;8.05;;
67597;SDS011;62026;39.230;9.122;2023-01-05T09:16:25;15.32;;;8.07;;
67597;SDS011;62026;39.230;9.122;2023-01-05T09:18:55;16.00;;;8.57;;
67597;SDS011;62026;39.230;9.122;2023-01-05T09:21:23;14.75;;;7.90;;
67597;SDS011;62026;39.230;9.122;2023-01-05T09:23:49;15.98;;;7.28;;
67597;SDS011;62026;39.230;9.122;2023-01-05T09:26:16;13.10;;;7.70;;
67597;SDS011;62026;39.230;9.122;2023-01-05T09:28:43;12.27;;;7.38;;
67597;SDS011;62026;39.230;9.122;2023-01-05T09:31:16;16.63;;;7.22;;
67597;SDS011;62026;39.230;9.122;2023-01-05T09:33:51;11.10;;;6.75;;
67597;SDS011;62026;39.230;9.122;2023-01-05T09:36:17;14.73;;;7.22;;
67597;SDS011;62026;39.230;9.122;2023-01-05T09:39:02;14.30;;;7.25;;
67597;SDS011;62026;39.230;9.122;2023-01-05T09:41:32;10.30;;;6.80;;
67597;SDS011;62026;39.230;9.122;2023-01-05T09:44:20;14.68;;;6.68;;
67597;SDS011;62026;39.230;9.122;2023-01-05T09:46:49;14.35;;;6.95;;
67597;SDS011;62026;39.230;9.122;2023-01-05T09:49:19;13.85;;;7.22;;
67597;SDS011;62026;39.230;9.122;2023-01-05T09:52:11;10.68;;;6.32;;
67597;SDS011;62026;39.230;9.122;2023-01-05T09:54:38;13.35;;;6.50;;
67597;SDS011;62026;39.230;9.122;2023-01-05T09:57:06;11.27;;;6.72;;
67597;SDS011;62026;39.230;9.122;2023-01-05T09:59:50;12.27;;;6.30;;
67597;SDS011;62026;39.230;9.122;2023-01-05T10:02:28;13.43;;;7.00;;
67597;SDS011;62026;39.230;9.122;2023-01-05T10:05:15;11.02;;;6.45;;
67597;SDS011;62026;39.230;9.122;2023-01-05T10:07:50;12.95;;;6.45;;
67597;SDS011;62026;39.230;9.122;2023-01-05T10:13:35;13.45;;;5.68;;
67597;SDS011;62026;39.230;9.122;2023-01-05T10:16:13;11.80;;;6.47;;
67597;SDS011;62026;39.230;9.122;2023-01-05T10:18:41;11.00;;;6.07;;
67597;SDS011;62026;39.230;9.122;2023-01-05T10:21:14;9.65;;;5.25;;
67597;SDS011;62026;39.230;9.122;2023-01-05T10:26:57;9.55;;;5.03;;
67597;SDS011;62026;39.230;9.122;2023-01-05T10:29:46;11.13;;;5.82;;
67597;SDS011;62026;39.230;9.122;2023-01-05T10:32:24;13.18;;;5.32;;
67597;SDS011;62026;39.230;9.122;2023-01-05T10:34:58;13.80;;;5.30;;
67597;SDS011;62026;39.230;9.122;2023-01-05T10:40:38;8.43;;;4.78;;
67597;SDS011;62026;39.230;9.122;2023-01-05T10:46:33;8.43;;;4.13;;
67597;SDS011;62026;39.230;9.122;2023-01-05T10:49:05;8.25;;;3.88;;
67597;SDS011;62026;39.230;9.122;2023-01-05T10:51:32;8.05;;;3.53;;
67597;SDS011;62026;39.230;9.122;2023-01-05T10:54:01;8.38;;;2.90;;
67597;SDS011;62026;39.230;9.122;2023-01-05T10:56:29;6.30;;;2.88;;
67597;SDS011;62026;39.230;9.122;2023-01-05T11:01:31;5.18;;;2.38;;
67597;SDS011;62026;39.230;9.122;2023-01-05T11:04:06;4.25;;;2.20;;
67597;SDS011;62026;39.230;9.122;2023-01-05T11:06:41;5.90;;;2.63;;
67597;SDS011;62026;39.230;9.122;2023-01-05T11:11:42;6.55;;;2.45;;
67597;SDS011;62026;39.230;9.122;2023-01-05T11:14:18;7.97;;;2.50;;
67597;SDS011;62026;39.230;9.122;2023-01-05T11:16:47;4.68;;;2.58;;
67597;SDS011;62026;39.230;9.122;2023-01-05T11:19:20;7.60;;;2.58;;
67597;SDS011;62026;39.230;9.122;2023-01-05T11:21:53;9.38;;;3.03;;
67597;SDS011;62026;39.230;9.122;2023-01-05T11:26:55;6.53;;;2.47;;
67597;SDS011;62026;39.230;9.122;2023-01-05T11:32:49;5.13;;;2.30;;
67597;SDS011;62026;39.230;9.122;2023-01-05T11:35:19;5.63;;;2.50;;
67597;SDS011;62026;39.230;9.122;2023-01-05T11:38:01;6.80;;;2.22;;
67597;SDS011;62026;39.230;9.122;2023-01-05T11:40:29;4.45;;;2.60;;
67597;SDS011;62026;39.230;9.122;2023-01-05T11:42:59;11.35;;;2.90;;
67597;SDS011;62026;39.230;9.122;2023-01-05T11:45:46;6.72;;;2.30;;
67597;SDS011;62026;39.230;9.122;2023-01-05T11:48:22;5.80;;;2.55;;
67597;SDS011;62026;39.230;9.122;2023-01-05T11:50:53;10.32;;;2.30;;
67597;SDS011;62026;39.230;9.122;2023-01-05T11:56:02;7.47;;;2.70;;
67597;SDS011;62026;39.230;9.122;2023-01-05T11:58:49;7.45;;;2.70;;
67597;SDS011;62026;39.230;9.122;2023-01-05T12:07:16;6.43;;;2.63;;
67597;SDS011;62026;39.230;9.122;2023-01-05T12:15:50;6.95;;;2.45;;
67597;SDS011;62026;39.230;9.122;2023-01-05T12:19:23;4.00;;;2.20;;
67597;SDS011;62026;39.230;9.122;2023-01-05T12:21:45;6.55;;;2.42;;
67597;SDS011;62026;39.230;9.122;2023-01-05T12:30:25;6.45;;;3.00;;
67597;SDS011;62026;39.230;9.122;2023-01-05T12:35:54;5.47;;;2.28;;
67597;SDS011;62026;39.230;9.122;2023-01-05T12:38:44;3.80;;;1.80;;
67597;SDS011;62026;39.230;9.122;2023-01-05T12:47:55;5.28;;;2.30;;
67597;SDS011;62026;39.230;9.122;2023-01-05T12:50:45;5.47;;;2.08;;
67597;SDS011;62026;39.230;9.122;2023-01-05T12:56:22;5.18;;;1.73;;
67597;SDS011;62026;39.230;9.122;2023-01-05T12:59:05;4.40;;;1.58;;
67597;SDS011;62026;39.230;9.122;2023-01-05T13:04:49;4.53;;;1.30;;
67597;SDS011;62026;39.230;9.122;2023-01-05T13:07:32;5.00;;;1.58;;
67597;SDS011;62026;39.230;9.122;2023-01-05T13:10:05;4.28;;;1.52;;
67597;SDS011;62026;39.230;9.122;2023-01-05T13:12:49;2.22;;;1.10;;
67597;SDS011;62026;39.230;9.122;2023-01-05T13:15:26;5.10;;;1.20;;
67597;SDS011;62026;39.230;9.122;2023-01-05T13:18:12;3.70;;;1.40;;
67597;SDS011;62026;39.230;9.122;2023-01-05T13:20:53;3.90;;;1.58;;
67597;SDS011;62026;39.230;9.122;2023-01-05T13:23:27;3.80;;;1.65;;
67597;SDS011;62026;39.230;9.122;2023-01-05T13:26:06;3.33;;;1.50;;
67597;SDS011;62026;39.230;9.122;2023-01-05T13:28:38;4.97;;;1.42;;
67597;SDS011;62026;39.230;9.122;2023-01-05T13:31:13;3.40;;;1.20;;
67597;SDS011;62026;39.230;9.122;2023-01-05T13:34:44;4.15;;;1.05;;
67597;SDS011;62026;39.230;9.122;2023-01-05T13:40:51;5.90;;;1.17;;
67597;SDS011;62026;39.230;9.122;2023-01-05T13:49:27;5.65;;;1.38;;
67597;SDS011;62026;39.230;9.122;2023-01-05T13:52:41;2.22;;;1.05;;
67597;SDS011;62026;39.230;9.122;2023-01-05T13:55:29;4.43;;;1.85;;
67597;SDS011;62026;39.230;9.122;2023-01-05T14:00:34;3.55;;;1.23;;
67597;SDS011;62026;39.230;9.122;2023-01-05T14:03:12;1.75;;;1.00;;
67597;SDS011;62026;39.230;9.122;2023-01-05T14:05:58;4.47;;;1.17;;
67597;SDS011;62026;39.230;9.122;2023-01-05T14:08:36;3.33;;;1.08;;
67597;SDS011;62026;39.230;9.122;2023-01-05T14:11:13;6.88;;;1.30;;
67597;SDS011;62026;39.230;9.122;2023-01-05T14:19:10;5.65;;;1.27;;
67597;SDS011;62026;39.230;9.122;2023-01-05T14:24:36;2.85;;;1.20;;
67597;SDS011;62026;39.230;9.122;2023-01-05T14:27:07;3.47;;;1.13;;
67597;SDS011;62026;39.230;9.122;2023-01-05T14:32:14;5.13;;;1.20;;
67597;SDS011;62026;39.230;9.122;2023-01-05T14:37:51;5.03;;;1.25;;
67597;SDS011;62026;39.230;9.122;2023-01-05T14:40:37;6.63;;;1.17;;
67597;SDS011;62026;39.230;9.122;2023-01-05T14:46:04;4.35;;;1.33;;
67597;SDS011;62026;39.230;9.122;2023-01-05T14:48:48;4.93;;;1.20;;
67597;SDS011;62026;39.230;9.122;2023-01-05T14:51:30;3.55;;;1.38;;
67597;SDS011;62026;39.230;9.122;2023-01-05T14:54:01;7.30;;;1.67;;
67597;SDS011;62026;39.230;9.122;2023-01-05T14:56:30;4.53;;;1.10;;
67597;SDS011;62026;39.230;9.122;2023-01-05T14:59:16;2.55;;;0.95;;
67597;SDS011;62026;39.230;9.122;2023-01-05T15:01:57;3.35;;;1.00;;
67597;SDS011;62026;39.230;9.122;2023-01-05T15:04:37;5.60;;;1.23;;
67597;SDS011;62026;39.230;9.122;2023-01-05T15:07:14;7.63;;;1.60;;
67597;SDS011;62026;39.230;9.122;2023-01-05T15:16:15;6.80;;;2.40;;
67597;SDS011;62026;39.230;9.122;2023-01-05T15:25:34;8.38;;;2.20;;
67597;SDS011;62026;39.230;9.122;2023-01-05T15:39:51;8.23;;;1.90;;
67597;SDS011;62026;39.230;9.122;2023-01-05T15:42:21;7.40;;;2.20;;
67597;SDS011;62026;39.230;9.122;2023-01-05T15:45:01;3.95;;;1.73;;
67597;SDS011;62026;39.230;9.122;2023-01-05T15:47:34;6.10;;;2.10;;
67597;SDS011;62026;39.230;9.122;2023-01-05T15:50:04;4.55;;;1.90;;
67597;SDS011;62026;39.230;9.122;2023-01-05T15:52:40;6.03;;;1.90;;
67597;SDS011;62026;39.230;9.122;2023-01-05T15:55:15;3.88;;;1.60;;
67597;SDS011;62026;39.230;9.122;2023-01-05T15:57:56;5.47;;;2.10;;
67597;SDS011;62026;39.230;9.122;2023-01-05T16:00:27;6.20;;;2.00;;
67597;SDS011;62026;39.230;9.122;2023-01-05T16:03:00;5.35;;;2.40;;
67597;SDS011;62026;39.230;9.122;2023-01-05T16:05:46;6.82;;;2.70;;
67597;SDS011;62026;39.230;9.122;2023-01-05T16:08:13;10.23;;;2.75;;
67597;SDS011;62026;39.230;9.122;2023-01-05T16:13:36;9.27;;;3.00;;
67597;SDS011;62026;39.230;9.122;2023-01-05T16:18:48;6.57;;;2.80;;
67597;SDS011;62026;39.230;9.122;2023-01-05T16:21:28;10.80;;;3.08;;
67597;SDS011;62026;39.230;9.122;2023-01-05T16:27:13;8.35;;;3.47;;
67597;SDS011;62026;39.230;9.122;2023-01-05T16:29:44;8.27;;;3.70;;
67597;SDS011;62026;39.230;9.122;2023-01-05T16:32:25;12.40;;;3.90;;
67597;SDS011;62026;39.230;9.122;2023-01-05T16:38:03;9.65;;;3.63;;
67597;SDS011;62026;39.230;9.122;2023-01-05T16:48:43;7.95;;;2.60;;
67597;SDS011;62026;39.230;9.122;2023-01-05T16:51:16;10.32;;;2.90;;
67597;SDS011;62026;39.230;9.122;2023-01-05T16:54:48;6.75;;;2.83;;
67597;SDS011;62026;39.230;9.122;2023-01-05T17:02:56;7.95;;;3.40;;
67597;SDS011;62026;39.230;9.122;2023-01-05T17:05:49;20.88;;;8.25;;
67597;SDS011;62026;39.230;9.122;2023-01-05T17:08:18;12.68;;;5.90;;
67597;SDS011;62026;39.230;9.122;2023-01-05T17:10:52;10.50;;;5.28;;
67597;SDS011;62026;39.230;9.122;2023-01-05T17:13:22;12.02;;;4.07;;
67597;SDS011;62026;39.230;9.122;2023-01-05T17:16:16;13.73;;;4.38;;
67597;SDS011;62026;39.230;9.122;2023-01-05T17:18:43;12.10;;;4.15;;
67597;SDS011;62026;39.230;9.122;2023-01-05T17:21:12;15.73;;;5.20;;
67597;SDS011;62026;39.230;9.122;2023-01-05T17:23:48;12.00;;;5.18;;
67597;SDS011;62026;39.230;9.122;2023-01-05T17:26:34;13.05;;;4.90;;
67597;SDS011;62026;39.230;9.122;2023-01-05T17:29:03;16.02;;;4.32;;
67597;SDS011;62026;39.230;9.122;2023-01-05T17:31:31;7.88;;;3.90;;
67597;SDS011;62026;39.230;9.122;2023-01-05T17:33:58;12.35;;;3.88;;
67597;SDS011;62026;39.230;9.122;2023-01-05T17:36:30;11.25;;;4.38;;
67597;SDS011;62026;39.230;9.122;2023-01-05T17:38:58;6.97;;;3.60;;
67597;SDS011;62026;39.230;9.122;2023-01-05T17:41:25;7.38;;;3.40;;
67597;SDS011;62026;39.230;9.122;2023-01-05T17:43:51;10.95;;;3.80;;
67597;SDS011;62026;39.230;9.122;2023-01-05T17:46:17;10.93;;;3.80;;
67597;SDS011;62026;39.230;9.122;2023-01-05T17:48:56;8.43;;;3.53;;
67597;SDS011;62026;39.230;9.122;2023-01-05T17:51:25;6.63;;;3.72;;
67597;SDS011;62026;39.230;9.122;2023-01-05T17:53:55;10.63;;;3.92;;
67597;SDS011;62026;39.230;9.122;2023-01-05T17:56:23;12.32;;;4.38;;
67597;SDS011;62026;39.230;9.122;2023-01-05T17:58:50;11.82;;;4.80;;
67597;SDS011;62026;39.230;9.122;2023-01-05T18:01:16;9.07;;;4.55;;
67597;SDS011;62026;39.230;9.122;2023-01-05T18:03:43;11.60;;;4.70;;
67597;SDS011;62026;39.230;9.122;2023-01-05T18:06:09;13.13;;;4.85;;
67597;SDS011;62026;39.230;9.122;2023-01-05T18:08:35;10.68;;;4.90;;